Burnet, TX

5:08 PM CST on December 04, 2016 (GMT -0600)
Bauer Farms | | Change Station

Elev 1476 ft 30.77 °N, 98.26 °W | Updated 13 minutes ago

Overcast
Overcast
47.1 °F
Feels Like 46 °F
N
3.7
Wind Variable Wind from NNE

Today
High -- | Low -- °F
--% Chance of Precip.
Yesterday
High -- | Low -- °F
Precip. -- in
Pressure 29.98 in
Visibility 10.0 miles
Clouds Overcast 1500 ft
Windchill 46 °F
Dew Point 46 °F
Humidity 94%
Rainfall 0.02 in
Snow Depth Not available.
7:15 AM 5:31 PM
Waxing Crescent, 26% visible
METAR KBMQ 042253Z AUTO 36011G16KT 10SM OVC015 09/06 A2998 RMK AO2 SLP150 T00940061
Pressure 29.98 in
Visibility 10.0 miles
Clouds Overcast 1500 ft
Windchill 46 °F
Dew Point 46 °F
Humidity 94%
Rainfall 0.02 in
Snow Depth Not available.
7:15 AM 5:31 PM
Waxing Crescent, 26% visible
METAR KBMQ 042253Z AUTO 36011G16KT 10SM OVC015 09/06 A2998 RMK AO2 SLP150 T00940061

10-Day Weather Forecast

Almanac

Astronomy

Dec. 04, 2016 Rise Set
Actual Time
Civil Twilight
Nautical Twilight
Astronomical Twilight
Moon
Length of Visible Light
Length of Day
Tomorrow will be .
, % of the Moon is Illuminated

Today's Extremes

State Highs State Lows

Community

WunderPhotos

Upload Photos

1,955,695 photos uploaded!

WunderBlog® & News

Nearby

Air Quality

  Air Quality AQ Index Pollutant
Not available.

Snow Depth

Station Depth Elevation

Earthquake Activity

City Distance Mag. Time & Date
Minimum magnitude displayed is 2.5.

Coastal Water Temperatures

Place Temperature

Stations

Nearby Weather Stations

Station Location Temp. Windchill Dew Point Humidity Wind Precip. Elev Updated Type
                   

Watches & Warnings

There are currently no watches in effect.